createdAt,value
2018-08-23T00:01:38.840Z,27.20
2018-08-23T00:04:11.728Z,24.80
2018-08-23T00:06:50.205Z,27.80
2018-08-23T00:09:21.664Z,26.20
2018-08-23T00:11:54.587Z,27.40
2018-08-23T00:14:26.184Z,25.60
2018-08-23T00:16:57.869Z,28.60
2018-08-23T00:19:29.457Z,25.40
2018-08-23T00:22:01.393Z,25.80
2018-08-23T00:24:32.826Z,23.20
2018-08-23T00:27:04.127Z,22.40
2018-08-23T00:29:35.660Z,26.80
2018-08-23T00:32:08.126Z,25.80
2018-08-23T00:34:40.601Z,27.40
2018-08-23T00:37:13.574Z,28.00
2018-08-23T00:39:45.235Z,24.60
2018-08-23T00:42:16.726Z,23.20
2018-08-23T00:45:01.471Z,30.40
2018-08-23T00:47:34.026Z,27.40
2018-08-23T00:50:05.676Z,29.20
2018-08-23T00:52:48.179Z,26.60
2018-08-23T00:55:28.684Z,32.80
2018-08-23T00:58:00.395Z,31.20
2018-08-23T01:00:32.126Z,28.20
2018-08-23T01:03:04.851Z,29.40
2018-08-23T01:05:39.273Z,31.20
2018-08-23T01:08:11.015Z,29.20
2018-08-23T01:10:42.811Z,28.20
2018-08-23T01:13:14.426Z,33.00
2018-08-23T01:15:50.836Z,30.80
2018-08-23T01:18:22.582Z,30.20
2018-08-23T01:20:54.564Z,26.80
2018-08-23T01:23:26.076Z,33.00
2018-08-23T01:25:57.841Z,34.20
2018-08-23T01:28:29.924Z,26.60
2018-08-23T01:31:32.842Z,29.00
2018-08-23T01:34:04.575Z,32.80
2018-08-23T01:36:35.962Z,30.00
2018-08-23T01:39:12.354Z,30.80
2018-08-23T01:41:44.066Z,29.20
2018-08-23T01:44:15.716Z,31.20
2018-08-23T01:46:47.348Z,33.40
2018-08-23T01:49:19.504Z,34.60
2018-08-23T01:51:51.285Z,37.00
2018-08-23T01:54:22.971Z,35.40
2018-08-23T01:56:54.565Z,38.20
2018-08-23T01:59:26.220Z,36.20
2018-08-23T02:02:00.877Z,39.20
2018-08-23T02:04:32.423Z,36.20
2018-08-23T02:07:03.857Z,34.00
2018-08-23T02:09:35.508Z,31.80
2018-08-23T02:12:07.427Z,31.00
2018-08-23T02:14:43.988Z,36.60
2018-08-23T02:17:15.792Z,33.20
2018-08-23T02:19:49.694Z,34.80
2018-08-23T02:22:21.378Z,32.00
2018-08-23T02:24:52.774Z,43.60
2018-08-23T02:27:24.595Z,38.80
2018-08-23T02:29:57.504Z,48.00
2018-08-23T02:32:29.154Z,45.00
2018-08-23T02:35:07.538Z,41.80
2018-08-23T02:37:38.950Z,45.00
2018-08-23T02:40:10.566Z,40.40
2018-08-23T02:42:42.546Z,45.20
2018-08-23T02:45:16.214Z,45.20
2018-08-23T02:47:47.999Z,41.20
2018-08-23T02:50:19.611Z,41.00
2018-08-23T02:52:51.375Z,40.20
2018-08-23T02:55:22.943Z,44.00
2018-08-23T02:58:01.697Z,41.20
2018-08-23T03:00:37.810Z,33.60
2018-08-23T03:03:09.905Z,38.20
2018-08-23T03:05:42.057Z,39.20
2018-08-23T03:08:13.431Z,36.40
2018-08-23T03:10:45.156Z,36.80
2018-08-23T03:13:17.474Z,34.40
2018-08-23T03:15:48.808Z,36.00
2018-08-23T03:18:20.693Z,34.00
2018-08-23T03:20:56.931Z,34.80
2018-08-23T03:23:28.092Z,36.60
2018-08-23T03:25:59.681Z,32.20
2018-08-23T03:28:32.316Z,27.80
2018-08-23T03:31:05.271Z,29.80
2018-08-23T03:33:36.586Z,26.40
2018-08-23T03:36:07.128Z,27.40
2018-08-23T03:38:38.773Z,29.20
2018-08-23T03:41:10.181Z,27.60
2018-08-23T03:43:41.816Z,25.20
2018-08-23T03:46:13.337Z,25.40
2018-08-23T03:48:47.121Z,27.20
2018-08-23T03:51:18.671Z,24.20
2018-08-23T03:53:54.717Z,27.80
2018-08-23T03:56:26.299Z,23.60
2018-08-23T03:58:57.711Z,28.20
2018-08-23T04:01:29.402Z,26.20
2018-08-23T04:04:01.226Z,25.60
2018-08-23T04:06:35.897Z,29.40
2018-08-23T04:09:09.290Z,28.80
2018-08-23T04:11:40.909Z,34.60
2018-08-23T04:14:12.370Z,28.20
2018-08-23T04:16:44.009Z,24.00
2018-08-23T04:19:15.456Z,27.00
2018-08-23T04:21:47.075Z,23.80
2018-08-23T04:24:18.501Z,24.00
2018-08-23T04:26:50.006Z,22.00
2018-08-23T04:29:35.305Z,23.60
2018-08-23T04:32:07.716Z,25.40
2018-08-23T04:34:40.197Z,22.60
2018-08-23T04:37:11.587Z,22.40
2018-08-23T04:39:48.519Z,22.40
2018-08-23T04:42:19.806Z,22.00
2018-08-23T04:44:52.350Z,22.20
2018-08-23T04:47:24.483Z,23.00
2018-08-23T04:49:56.281Z,19.80
2018-08-23T04:52:27.922Z,25.00
2018-08-23T04:54:59.508Z,22.60
2018-08-23T04:57:31.357Z,18.40
2018-08-23T05:00:03.466Z,18.00
2018-08-23T05:02:35.025Z,19.20
2018-08-23T05:05:06.849Z,22.20
2018-08-23T05:07:38.399Z,20.20
2018-08-23T05:10:10.236Z,22.40
2018-08-23T05:12:41.750Z,21.20
2018-08-23T05:15:13.412Z,21.60
2018-08-23T05:17:44.829Z,20.00
2018-08-23T05:20:16.231Z,22.40
2018-08-23T05:22:53.311Z,23.80
2018-08-23T05:25:26.996Z,22.20
2018-08-23T05:28:12.715Z,20.40
2018-08-23T05:30:46.595Z,24.60
2018-08-23T05:33:20.048Z,25.40
2018-08-23T05:35:52.053Z,25.80
2018-08-23T05:38:23.720Z,22.60
2018-08-23T05:41:02.091Z,21.40
2018-08-23T05:43:34.356Z,24.60
2018-08-23T05:46:05.987Z,24.60
2018-08-23T05:48:37.921Z,24.80
2018-08-23T05:51:14.052Z,21.60
2018-08-23T05:53:48.677Z,24.60
2018-08-23T05:56:22.103Z,20.60
2018-08-23T05:59:00.526Z,22.80
2018-08-23T06:01:32.926Z,20.60
2018-08-23T06:04:04.628Z,21.60
2018-08-23T06:06:36.245Z,18.40
2018-08-23T06:09:17.071Z,20.40
2018-08-23T06:11:48.400Z,22.00
2018-08-23T06:14:19.912Z,22.00
2018-08-23T06:16:58.455Z,23.60
2018-08-23T06:19:30.583Z,21.80
2018-08-23T06:22:02.305Z,21.20
2018-08-23T06:24:33.864Z,21.80
2018-08-23T06:27:05.492Z,19.80
2018-08-23T06:29:37.085Z,23.40
2018-08-23T06:32:10.279Z,19.00
2018-08-23T06:34:58.108Z,22.80
2018-08-23T06:37:30.151Z,25.80
2018-08-23T06:40:01.963Z,24.00
2018-08-23T06:42:46.780Z,27.60
2018-08-23T06:45:18.455Z,25.40
2018-08-23T06:47:54.864Z,31.20
2018-08-23T06:51:28.932Z,27.00
2018-08-23T06:54:02.935Z,24.80
2018-08-23T06:56:36.836Z,31.40
2018-08-23T06:59:09.661Z,26.00
2018-08-23T07:01:45.893Z,30.40
2018-08-23T07:04:17.608Z,24.00
2018-08-23T07:06:49.377Z,30.00
2018-08-23T07:09:21.144Z,29.20
2018-08-23T07:11:53.103Z,29.40
2018-08-23T07:14:25.005Z,28.80
2018-08-23T07:16:57.746Z,25.20
2018-08-23T07:19:33.025Z,24.80
2018-08-23T07:22:05.327Z,31.00
2018-08-23T07:24:45.676Z,29.40
2018-08-23T07:27:18.173Z,27.00
2018-08-23T07:29:50.666Z,28.20
2018-08-23T07:32:24.158Z,26.20
2018-08-23T07:35:19.187Z,26.20
2018-08-23T07:37:52.900Z,29.00
2018-08-23T07:40:25.466Z,29.00
2018-08-23T07:42:56.927Z,30.60
2018-08-23T07:45:28.829Z,30.20
2018-08-23T07:48:00.545Z,26.80
2018-08-23T07:50:32.108Z,25.00
2018-08-23T07:53:03.826Z,33.00
2018-08-23T07:55:35.738Z,28.00
2018-08-23T08:00:40.381Z,27.60
2018-08-23T08:03:13.462Z,29.80
2018-08-23T08:05:46.276Z,27.80
2018-08-23T08:08:17.958Z,32.20
2018-08-23T08:10:49.347Z,25.40
2018-08-23T08:13:20.958Z,27.20
2018-08-23T08:15:52.671Z,28.40
2018-08-23T08:18:25.136Z,26.40
2018-08-23T08:21:03.726Z,29.00
2018-08-23T08:23:35.393Z,27.00
2018-08-23T08:26:07.058Z,27.20
2018-08-23T08:28:39.783Z,26.60
2018-08-23T08:31:11.266Z,29.00
2018-08-23T08:33:42.763Z,24.60
2018-08-23T08:36:14.229Z,26.60
2018-08-23T08:38:45.850Z,28.20
2018-08-23T08:41:17.311Z,26.60
2018-08-23T08:43:49.020Z,31.20
2018-08-23T08:46:21.041Z,29.60
2018-08-23T08:48:52.733Z,28.20
2018-08-23T08:51:28.836Z,27.20
2018-08-23T08:54:01.776Z,28.60
2018-08-23T08:56:38.224Z,25.00
2018-08-23T08:59:09.872Z,29.80
2018-08-23T09:01:41.744Z,31.60
2018-08-23T09:04:17.631Z,33.20
2018-08-23T09:06:49.053Z,25.00
2018-08-23T09:09:32.300Z,31.00
2018-08-23T09:12:06.201Z,31.40
2018-08-23T09:14:38.716Z,28.40
2018-08-23T09:17:24.485Z,26.20
2018-08-23T09:20:17.229Z,28.00
2018-08-23T09:22:50.681Z,25.60
2018-08-23T09:25:35.107Z,19.80
2018-08-23T09:28:06.904Z,25.00
2018-08-23T09:30:38.514Z,28.80
2018-08-23T09:33:15.472Z,21.80
2018-08-23T09:35:47.143Z,24.20
2018-08-23T09:38:18.641Z,27.40
2018-08-23T09:40:50.345Z,29.40
2018-08-23T09:43:22.103Z,28.40
2018-08-23T09:45:55.229Z,33.00
2018-08-23T09:48:27.361Z,26.20
2018-08-23T09:50:59.093Z,28.60
2018-08-23T09:53:30.849Z,28.60
2018-08-23T09:56:02.322Z,30.40
2018-08-23T09:58:38.772Z,28.00
2018-08-23T10:01:14.962Z,29.00
2018-08-23T10:03:51.275Z,33.20
2018-08-23T10:06:23.850Z,31.60
2018-08-23T10:09:09.257Z,28.60
2018-08-23T10:13:48.808Z,26.60
2018-08-23T10:16:25.434Z,33.40
2018-08-23T10:19:02.950Z,29.20
2018-08-23T10:21:39.341Z,32.60
2018-08-23T10:24:18.834Z,34.00
2018-08-23T10:26:50.464Z,28.00
2018-08-23T10:29:22.083Z,30.80
2018-08-23T10:31:53.743Z,30.00
2018-08-23T10:34:25.426Z,30.00
2018-08-23T10:36:57.109Z,28.00
2018-08-23T10:39:28.635Z,29.20
2018-08-23T10:42:00.104Z,29.20
2018-08-23T10:44:31.822Z,25.00
2018-08-23T10:47:03.599Z,27.20
2018-08-23T10:49:35.258Z,26.60
2018-08-23T10:52:07.044Z,27.60
2018-08-23T10:54:38.516Z,29.80
2018-08-23T10:57:14.081Z,27.40
2018-08-23T10:59:46.060Z,25.80
2018-08-23T11:02:17.642Z,27.40
2018-08-23T11:04:49.089Z,25.80
2018-08-23T11:07:25.008Z,23.80
2018-08-23T11:10:01.371Z,22.00
2018-08-23T11:12:37.743Z,26.80
2018-08-23T11:15:13.881Z,19.40
2018-08-23T11:17:50.084Z,19.60
2018-08-23T11:20:26.278Z,22.60
2018-08-23T11:22:58.057Z,24.60
2018-08-23T11:25:29.570Z,21.20
2018-08-23T11:28:05.519Z,20.80
2018-08-23T11:30:36.995Z,17.00
2018-08-23T11:33:10.557Z,18.80
2018-08-23T11:35:42.101Z,17.60
2018-08-23T11:38:14.368Z,16.40
2018-08-23T11:40:46.054Z,13.00
2018-08-23T11:43:17.720Z,15.40
2018-08-23T11:45:53.722Z,14.00
2018-08-23T11:48:25.528Z,12.40
2018-08-23T11:50:56.784Z,12.40
2018-08-23T11:53:28.428Z,11.60
2018-08-23T11:55:59.627Z,10.80
2018-08-23T11:58:31.844Z,12.60
2018-08-23T12:01:10.582Z,11.80
2018-08-23T12:03:43.156Z,13.40
2018-08-23T12:06:15.850Z,12.80
2018-08-23T12:08:47.558Z,15.40
2018-08-23T12:11:19.614Z,14.00
2018-08-23T12:13:51.786Z,15.00
2018-08-23T12:16:23.393Z,16.40
2018-08-23T12:18:55.102Z,19.60
2018-08-23T12:21:26.400Z,16.00
2018-08-23T12:23:57.920Z,19.40
2018-08-23T12:26:29.620Z,17.00
2018-08-23T12:29:06.017Z,19.00
2018-08-23T12:31:37.915Z,21.60
2018-08-23T12:34:10.810Z,20.00
2018-08-23T12:36:46.934Z,20.60
2018-08-23T12:39:23.243Z,20.00
2018-08-23T12:41:59.378Z,23.80
2018-08-23T12:44:30.618Z,21.60
2018-08-23T12:47:05.402Z,23.20
2018-08-23T12:49:37.170Z,25.80
2018-08-23T12:52:08.996Z,20.80
2018-08-23T12:54:40.314Z,25.60
2018-08-23T12:57:11.909Z,27.20
2018-08-23T12:59:43.586Z,25.60
2018-08-23T13:02:16.397Z,25.00
2018-08-23T13:04:48.244Z,23.00
2018-08-23T13:07:20.131Z,24.40
2018-08-23T13:09:51.833Z,29.80
2018-08-23T13:12:23.299Z,23.20
2018-08-23T13:14:55.404Z,26.40
2018-08-23T13:17:26.950Z,25.20
2018-08-23T13:19:58.823Z,25.60
2018-08-23T13:22:35.108Z,22.80
2018-08-23T13:25:08.327Z,21.80
2018-08-23T13:27:40.102Z,24.20
2018-08-23T13:30:11.865Z,26.20
2018-08-23T13:32:43.369Z,23.20
2018-08-23T13:35:15.426Z,26.60
2018-08-23T13:37:46.915Z,26.00
2018-08-23T13:40:19.521Z,24.60
2018-08-23T13:42:51.127Z,24.00
2018-08-23T13:45:22.973Z,28.40
2018-08-23T13:47:54.611Z,26.20
2018-08-23T13:50:26.197Z,25.40
2018-08-23T13:52:57.632Z,27.20
2018-08-23T13:55:29.247Z,26.60
2018-08-23T13:58:00.692Z,26.00
2018-08-23T14:00:36.939Z,22.40
2018-08-23T14:03:09.674Z,21.20
2018-08-23T14:05:42.258Z,20.40
2018-08-23T14:08:13.805Z,20.20
2018-08-23T14:10:45.598Z,18.40
2018-08-23T14:13:17.269Z,16.00
2018-08-23T14:15:53.709Z,19.20
2018-08-23T14:18:25.411Z,18.60
2018-08-23T14:20:57.123Z,20.60
2018-08-23T14:23:28.435Z,19.40
2018-08-23T14:25:59.976Z,18.80
2018-08-23T14:28:31.641Z,18.60
2018-08-23T14:31:03.123Z,17.40
2018-08-23T14:33:34.741Z,18.20
2018-08-23T14:36:06.159Z,20.40
2018-08-23T14:38:37.545Z,20.20
2018-08-23T14:41:09.186Z,20.00
2018-08-23T14:43:40.745Z,18.80
2018-08-23T14:46:16.920Z,23.60
2018-08-23T14:48:48.829Z,18.00
2018-08-23T14:51:20.916Z,20.20
2018-08-23T14:53:52.253Z,20.80
2018-08-23T14:56:28.605Z,24.40
2018-08-23T14:59:00.293Z,23.20
2018-08-23T15:01:31.984Z,22.80
2018-08-23T15:04:04.282Z,22.40
2018-08-23T15:06:35.804Z,26.80
2018-08-23T15:09:08.489Z,25.40
2018-08-23T15:11:40.422Z,25.40
2018-08-23T15:14:12.156Z,26.80
2018-08-23T15:16:43.767Z,27.40
2018-08-23T15:19:15.485Z,28.00
2018-08-23T15:21:47.110Z,27.80
2018-08-23T15:24:19.071Z,29.00
2018-08-23T15:26:51.089Z,33.00
2018-08-23T15:29:22.426Z,31.20
2018-08-23T15:31:54.164Z,32.00
2018-08-23T15:34:25.804Z,32.40
2018-08-23T15:36:57.417Z,32.60
2018-08-23T15:39:29.184Z,34.00
2018-08-23T15:42:00.923Z,30.80
2018-08-23T15:44:32.266Z,32.80
2018-08-23T15:47:03.851Z,34.40
2018-08-23T15:49:35.732Z,38.20
2018-08-23T15:52:07.170Z,37.60
2018-08-23T15:54:38.654Z,35.00
2018-08-23T15:57:10.425Z,36.00
2018-08-23T15:59:41.931Z,39.40
2018-08-23T16:02:13.846Z,40.40
2018-08-23T16:04:46.281Z,36.80
2018-08-23T16:07:17.912Z,38.60
2018-08-23T16:09:49.661Z,35.20
2018-08-23T16:12:21.202Z,40.40
2018-08-23T16:14:52.318Z,44.80
2018-08-23T16:17:28.564Z,39.60
2018-08-23T16:20:04.661Z,43.00
2018-08-23T16:22:36.506Z,40.40
2018-08-23T16:25:08.054Z,40.00
2018-08-23T16:27:39.809Z,40.20
2018-08-23T16:30:11.326Z,40.20
2018-08-23T16:32:42.596Z,41.20
2018-08-23T16:35:13.994Z,38.60
2018-08-23T16:37:45.691Z,35.40
2018-08-23T16:40:22.007Z,41.60
2018-08-23T16:42:53.788Z,42.80
2018-08-23T16:45:25.383Z,38.20
2018-08-23T16:47:56.837Z,43.20
2018-08-23T16:50:29.361Z,39.00
2018-08-23T16:53:00.831Z,44.80
2018-08-23T16:55:32.482Z,42.20
2018-08-23T16:58:04.368Z,45.00
2018-08-23T17:00:35.960Z,42.20
2018-08-23T17:03:07.814Z,41.60
2018-08-23T17:05:40.292Z,39.40
2018-08-23T17:08:12.278Z,39.60
2018-08-23T17:10:44.051Z,39.60
2018-08-23T17:13:20.615Z,44.20
2018-08-23T17:15:56.642Z,37.80
2018-08-23T17:18:28.370Z,38.80
2018-08-23T17:21:00.025Z,39.20
2018-08-23T17:23:31.824Z,40.80
2018-08-23T17:26:03.296Z,41.20
2018-08-23T17:28:34.814Z,39.80
2018-08-23T17:31:06.494Z,36.80
2018-08-23T17:33:38.103Z,40.80
2018-08-23T17:36:09.895Z,41.60
2018-08-23T17:38:41.771Z,38.80
2018-08-23T17:41:13.253Z,40.00
2018-08-23T17:43:44.881Z,38.60
2018-08-23T17:46:16.828Z,41.00
2018-08-23T17:48:48.534Z,37.60
2018-08-23T17:51:20.078Z,35.60
2018-08-23T17:53:51.961Z,35.40
2018-08-23T17:56:23.521Z,37.60
2018-08-23T17:58:55.194Z,41.00
2018-08-23T18:01:26.977Z,37.00
2018-08-23T18:03:59.570Z,38.60
2018-08-23T18:06:30.827Z,35.60
2018-08-23T18:09:02.604Z,38.80
2018-08-23T18:11:33.945Z,37.80
2018-08-23T18:14:05.593Z,40.20
2018-08-23T18:16:42.276Z,38.60
2018-08-23T18:19:14.037Z,34.60
2018-08-23T18:21:45.668Z,37.80
2018-08-23T18:24:22.423Z,34.40
2018-08-23T18:26:55.922Z,34.00
2018-08-23T18:29:30.204Z,35.80
2018-08-23T18:32:03.961Z,32.60
2018-08-23T18:34:36.381Z,34.80
2018-08-23T18:37:08.122Z,32.20
2018-08-23T18:39:40.247Z,34.40
2018-08-23T18:42:11.877Z,32.60
2018-08-23T18:44:43.430Z,35.00
2018-08-23T18:47:15.488Z,33.20
2018-08-23T18:49:47.222Z,34.60
2018-08-23T18:52:19.064Z,33.60
2018-08-23T18:54:50.724Z,34.40
2018-08-23T18:57:22.549Z,34.80
2018-08-23T18:59:54.384Z,35.00
2018-08-23T19:02:25.990Z,31.40
2018-08-23T19:04:58.006Z,33.20
2018-08-23T19:07:34.344Z,34.80
2018-08-23T19:10:06.093Z,33.20
2018-08-23T19:12:37.786Z,35.60
2018-08-23T19:15:10.024Z,37.40
2018-08-23T19:17:43.911Z,31.00
2018-08-23T19:20:15.836Z,29.00
2018-08-23T19:22:47.640Z,33.40
2018-08-23T19:25:19.283Z,32.40
2018-08-23T19:27:51.078Z,36.60
2018-08-23T19:30:22.867Z,33.60
2018-08-23T19:32:54.463Z,30.60
2018-08-23T19:35:26.290Z,28.00
2018-08-23T19:37:58.145Z,29.60
2018-08-23T19:40:31.580Z,36.20
2018-08-23T19:43:03.386Z,28.60
2018-08-23T19:45:39.644Z,30.60
2018-08-23T19:48:11.206Z,33.20
2018-08-23T19:50:43.043Z,38.00
2018-08-23T19:53:14.868Z,27.00
2018-08-23T19:55:46.220Z,31.60
2018-08-23T19:58:18.710Z,32.00
2018-08-23T20:00:50.764Z,28.80
2018-08-23T20:03:22.455Z,28.80
2018-08-23T20:05:54.365Z,29.60
2018-08-23T20:08:26.010Z,29.20
2018-08-23T20:10:58.373Z,28.60
2018-08-23T20:13:30.932Z,27.00
2018-08-23T20:16:02.700Z,31.40
2018-08-23T20:18:34.841Z,30.80
2018-08-23T20:21:06.858Z,28.80
2018-08-23T20:23:38.463Z,33.20
2018-08-23T20:26:09.638Z,32.00
2018-08-23T20:28:41.843Z,34.00
2018-08-23T20:31:14.844Z,31.40
2018-08-23T20:33:46.467Z,30.80
2018-08-23T20:36:19.635Z,29.00
2018-08-23T20:38:52.549Z,31.60
2018-08-23T20:41:26.005Z,31.20
2018-08-23T20:43:57.523Z,30.40
2018-08-23T20:46:29.393Z,32.80
2018-08-23T20:49:01.714Z,28.40
2018-08-23T20:51:33.617Z,25.40
2018-08-23T20:54:05.666Z,31.20
2018-08-23T20:56:37.430Z,28.20
2018-08-23T20:59:09.607Z,35.40
2018-08-23T21:01:41.245Z,30.60
2018-08-23T21:04:12.956Z,34.60
2018-08-23T21:06:45.314Z,29.40
2018-08-23T21:09:17.059Z,32.40
2018-08-23T21:11:48.500Z,30.20
2018-08-23T21:14:20.181Z,29.00
2018-08-23T21:16:51.979Z,28.80
2018-08-23T21:19:23.474Z,29.20
2018-08-23T21:21:54.963Z,29.60
2018-08-23T21:24:26.644Z,30.80
2018-08-23T21:26:58.147Z,31.60
2018-08-23T21:29:29.773Z,36.00
2018-08-23T21:32:01.294Z,30.20
2018-08-23T21:34:32.719Z,28.40
2018-08-23T21:37:04.640Z,29.40
2018-08-23T21:39:36.285Z,27.40
2018-08-23T21:42:07.627Z,32.60
2018-08-23T21:44:39.130Z,32.40
2018-08-23T21:47:10.735Z,27.60
2018-08-23T21:49:42.452Z,28.00
2018-08-23T21:52:14.171Z,27.40
2018-08-23T21:54:45.813Z,29.20
2018-08-23T21:57:17.848Z,27.00
2018-08-23T21:59:49.913Z,28.20
2018-08-23T22:02:21.633Z,26.00
2018-08-23T22:04:55.097Z,26.40
2018-08-23T22:07:26.915Z,27.00
2018-08-23T22:09:58.620Z,27.40
2018-08-23T22:12:30.398Z,24.40
2018-08-23T22:15:02.796Z,28.60
2018-08-23T22:17:34.705Z,24.60
2018-08-23T22:20:06.506Z,26.40
2018-08-23T22:22:38.205Z,26.60
2018-08-23T22:25:09.502Z,25.00
2018-08-23T22:27:41.018Z,26.00
2018-08-23T22:30:12.676Z,25.60
2018-08-23T22:32:44.434Z,26.80
2018-08-23T22:35:16.330Z,25.80
2018-08-23T22:37:48.058Z,26.40
2018-08-23T22:40:19.685Z,23.20
2018-08-23T22:42:51.597Z,28.80
2018-08-23T22:45:23.284Z,24.40
2018-08-23T22:47:55.413Z,21.80
2018-08-23T22:50:27.283Z,25.80
2018-08-23T22:52:59.781Z,27.20
2018-08-23T22:55:31.518Z,27.20
2018-08-23T22:58:03.627Z,24.40
2018-08-23T23:00:41.545Z,22.40
2018-08-23T23:03:18.571Z,27.60
2018-08-23T23:05:50.290Z,26.20
2018-08-23T23:08:22.064Z,20.40
2018-08-23T23:10:55.230Z,28.20
2018-08-23T23:13:27.111Z,23.80
2018-08-23T23:15:59.095Z,26.60
2018-08-23T23:18:31.759Z,27.00
2018-08-23T23:21:03.427Z,22.60
2018-08-23T23:23:35.168Z,25.20
2018-08-23T23:26:07.263Z,27.00
2018-08-23T23:28:38.992Z,27.40
2018-08-23T23:31:10.928Z,23.80
2018-08-23T23:33:42.624Z,17.80
2018-08-23T23:36:14.271Z,21.00
2018-08-23T23:38:46.135Z,23.00
2018-08-23T23:41:18.039Z,23.20
2018-08-23T23:43:49.883Z,21.00
2018-08-23T23:46:21.281Z,25.60
2018-08-23T23:48:52.961Z,24.20
2018-08-23T23:51:24.949Z,20.80
2018-08-23T23:53:56.806Z,23.00
2018-08-23T23:56:28.814Z,23.00
2018-08-23T23:59:00.726Z,21.60
